createdAt,value
2019-06-25T00:00:43.988Z,344.27
2019-06-25T00:03:10.056Z,328.88
2019-06-25T00:05:36.140Z,315.00
2019-06-25T00:08:02.516Z,315.20
2019-06-25T00:10:28.607Z,281.02
2019-06-25T00:12:54.724Z,279.40
2019-06-25T00:15:20.809Z,315.77
2019-06-25T00:17:46.897Z,360.00
2019-06-25T00:20:13.477Z,304.32
2019-06-25T00:22:41.572Z,286.10
2019-06-25T00:25:07.941Z,291.10
2019-06-25T00:27:34.021Z,286.92
2019-06-25T00:30:00.194Z,293.37
2019-06-25T00:32:26.257Z,263.80
2019-06-25T00:34:52.362Z,297.77
2019-06-25T00:37:19.248Z,280.23
2019-06-25T00:39:45.321Z,282.17
2019-06-25T00:42:11.405Z,264.55
2019-06-25T00:44:37.476Z,267.87
2019-06-25T00:47:03.574Z,264.08
2019-06-25T00:49:29.653Z,264.77
2019-06-25T00:51:56.552Z,269.93
2019-06-25T00:54:22.876Z,269.27
2019-06-25T00:56:48.993Z,258.10
2019-06-25T00:59:15.139Z,299.67
2019-06-25T01:01:42.353Z,274.18
2019-06-25T01:04:08.495Z,263.12
2019-06-25T01:06:34.566Z,280.20
2019-06-25T01:09:00.667Z,267.85
2019-06-25T01:11:26.919Z,262.45
2019-06-25T01:13:53.000Z,291.75
2019-06-25T01:16:19.072Z,280.90
2019-06-25T01:18:45.165Z,265.45
2019-06-25T01:21:11.352Z,296.60
2019-06-25T01:23:37.427Z,285.48
2019-06-25T01:26:03.719Z,289.48
2019-06-25T01:28:29.884Z,255.27
2019-06-25T01:30:55.961Z,275.20
2019-06-25T01:33:22.050Z,291.02
2019-06-25T01:35:48.235Z,283.47
2019-06-25T01:38:14.312Z,259.65
2019-06-25T01:40:40.385Z,302.65
2019-06-25T01:43:06.676Z,280.32
2019-06-25T01:45:32.760Z,288.75
2019-06-25T01:47:58.845Z,280.10
2019-06-25T01:50:24.943Z,284.27
2019-06-25T01:52:51.108Z,278.75
2019-06-25T01:55:17.289Z,281.35
2019-06-25T01:57:43.364Z,256.77
2019-06-25T02:00:10.003Z,295.75
2019-06-25T02:02:36.396Z,307.32
2019-06-25T02:05:05.493Z,280.73
2019-06-25T02:07:31.571Z,271.37
2019-06-25T02:09:57.668Z,297.75
2019-06-25T02:12:23.787Z,290.20
2019-06-25T02:14:49.927Z,297.33
2019-06-25T02:17:16.013Z,281.80
2019-06-25T02:19:42.100Z,310.73
2019-06-25T02:22:08.193Z,289.85
2019-06-25T02:24:34.267Z,297.00
2019-06-25T02:27:00.365Z,281.20
2019-06-25T02:29:26.638Z,284.15
2019-06-25T02:31:52.704Z,302.15
2019-06-25T02:34:19.064Z,269.18
2019-06-25T02:36:45.243Z,293.75
2019-06-25T02:39:11.333Z,302.27
2019-06-25T02:41:37.904Z,280.05
2019-06-25T02:44:04.118Z,278.42
2019-06-25T02:46:30.266Z,288.65
2019-06-25T02:48:56.328Z,290.82
2019-06-25T02:51:22.417Z,282.15
2019-06-25T02:53:48.487Z,305.25
2019-06-25T02:56:14.619Z,279.27
2019-06-25T02:58:40.680Z,269.07
2019-06-25T03:01:26.827Z,309.45
2019-06-25T03:03:35.151Z,278.02
2019-06-25T03:06:01.222Z,293.30
2019-06-25T03:08:27.308Z,262.65
2019-06-25T03:10:53.724Z,288.40
2019-06-25T03:13:19.796Z,289.52
2019-06-25T03:15:46.610Z,286.57
2019-06-25T03:18:12.684Z,271.37
2019-06-25T03:20:38.958Z,304.70
2019-06-25T03:23:05.070Z,256.65
2019-06-25T03:25:31.261Z,289.57
2019-06-25T03:27:57.348Z,257.95
2019-06-25T03:30:23.541Z,275.00
2019-06-25T03:32:49.751Z,355.60
2019-06-25T03:35:16.109Z,267.77
2019-06-25T03:37:42.192Z,274.82
2019-06-25T03:40:08.784Z,272.07
2019-06-25T03:42:34.977Z,273.60
2019-06-25T03:45:01.049Z,274.15
2019-06-25T03:47:27.153Z,262.17
2019-06-25T03:49:53.220Z,281.63
2019-06-25T03:52:19.313Z,282.77
2019-06-25T03:54:45.491Z,338.05
2019-06-25T03:57:11.679Z,241.17
2019-06-25T03:59:37.823Z,274.73
2019-06-25T04:02:16.545Z,300.32
2019-06-25T04:04:31.888Z,304.77
2019-06-25T04:06:57.963Z,269.52
2019-06-25T04:09:25.076Z,273.87
2019-06-25T04:11:52.772Z,301.15
2019-06-25T04:14:19.113Z,283.40
2019-06-25T04:16:45.171Z,270.20
2019-06-25T04:19:11.252Z,265.30
2019-06-25T04:21:37.331Z,274.35
2019-06-25T04:24:03.439Z,281.55
2019-06-25T04:26:29.603Z,288.65
2019-06-25T04:28:55.678Z,322.15
2019-06-25T04:31:21.802Z,317.93
2019-06-25T04:33:47.961Z,268.67
2019-06-25T04:36:14.499Z,258.02
2019-06-25T04:38:41.044Z,282.70
2019-06-25T04:41:07.128Z,282.98
2019-06-25T04:43:33.226Z,267.00
2019-06-25T04:45:59.296Z,277.27
2019-06-25T04:48:27.114Z,273.13
2019-06-25T04:50:53.369Z,317.57
2019-06-25T04:53:19.458Z,289.77
2019-06-25T04:55:45.528Z,286.15
2019-06-25T04:58:11.613Z,342.05
2019-06-25T05:00:37.685Z,292.10
2019-06-25T05:03:03.768Z,293.05
2019-06-25T05:05:29.840Z,293.10
2019-06-25T05:07:56.052Z,280.37
2019-06-25T05:10:22.121Z,282.60
2019-06-25T05:12:48.191Z,302.50
2019-06-25T05:15:16.885Z,301.98
2019-06-25T05:17:42.973Z,320.33
2019-06-25T05:20:09.673Z,309.50
2019-06-25T05:22:36.682Z,316.08
2019-06-25T05:25:04.378Z,340.20
2019-06-25T05:27:30.467Z,316.15
2019-06-25T05:29:56.638Z,281.73
2019-06-25T05:32:22.705Z,320.77
2019-06-25T05:34:48.795Z,298.82
2019-06-25T05:37:16.871Z,343.12
2019-06-25T05:39:42.941Z,367.93
2019-06-25T05:42:09.040Z,338.23
2019-06-25T05:44:35.129Z,319.95
2019-06-25T05:47:03.382Z,297.17
2019-06-25T05:49:29.292Z,325.93
2019-06-25T05:51:55.385Z,349.30
2019-06-25T05:54:21.480Z,343.88
2019-06-25T05:56:47.586Z,426.75
2019-06-25T05:59:13.656Z,347.70
2019-06-25T06:01:39.830Z,373.68
2019-06-25T06:04:05.924Z,324.05
2019-06-25T06:06:32.193Z,357.87
2019-06-25T06:08:58.280Z,370.23
2019-06-25T06:11:26.585Z,349.00
2019-06-25T06:13:52.394Z,396.18
2019-06-25T06:16:18.471Z,352.02
2019-06-25T06:18:44.672Z,350.05
2019-06-25T06:21:10.793Z,477.97
2019-06-25T06:23:37.280Z,487.98
2019-06-25T06:26:03.882Z,425.98
2019-06-25T06:28:29.960Z,390.15
2019-06-25T06:30:56.034Z,393.93
2019-06-25T06:33:35.473Z,416.85
2019-06-25T06:35:50.146Z,402.05
2019-06-25T06:38:16.516Z,410.43
2019-06-25T06:40:42.615Z,446.40
2019-06-25T06:43:08.694Z,416.25
2019-06-25T06:45:34.968Z,549.42
2019-06-25T06:48:01.297Z,495.27
2019-06-25T06:50:27.640Z,499.12
2019-06-25T06:52:53.716Z,513.10
2019-06-25T06:55:19.911Z,451.22
2019-06-25T06:57:46.021Z,479.25
2019-06-25T07:00:12.427Z,564.87
2019-06-25T07:02:39.003Z,519.10
2019-06-25T07:05:05.388Z,486.50
2019-06-25T07:07:31.656Z,479.95
2019-06-25T07:09:57.760Z,506.82
2019-06-25T07:12:23.938Z,500.68
2019-06-25T07:14:49.977Z,499.55
2019-06-25T07:17:16.089Z,516.05
2019-06-25T07:19:42.309Z,555.08
2019-06-25T07:22:13.933Z,562.88
2019-06-25T07:24:36.574Z,609.50
2019-06-25T07:27:02.956Z,603.23
2019-06-25T07:29:29.072Z,552.58
2019-06-25T07:31:55.146Z,565.40
2019-06-25T07:34:21.326Z,670.50
2019-06-25T07:36:47.452Z,623.47
2019-06-25T07:39:13.619Z,577.02
2019-06-25T07:41:40.165Z,591.48
2019-06-25T07:44:06.308Z,586.15
2019-06-25T07:46:32.472Z,596.40
2019-06-25T07:48:58.546Z,616.27
2019-06-25T07:51:24.853Z,643.50
2019-06-25T07:53:51.020Z,697.15
2019-06-25T07:56:17.089Z,669.45
2019-06-25T07:58:43.209Z,696.60
2019-06-25T08:01:09.366Z,687.35
2019-06-25T08:03:35.457Z,673.45
2019-06-25T08:06:01.657Z,644.42
2019-06-25T08:08:27.720Z,656.73
2019-06-25T08:10:53.792Z,693.02
2019-06-25T08:13:19.887Z,705.50
2019-06-25T08:15:46.056Z,686.02
2019-06-25T08:18:12.120Z,687.00
2019-06-25T08:20:38.316Z,696.98
2019-06-25T08:23:04.409Z,674.92
2019-06-25T08:25:30.501Z,700.62
2019-06-25T08:27:56.719Z,688.10
2019-06-25T08:30:22.852Z,693.25
2019-06-25T08:32:49.057Z,726.37
2019-06-25T08:35:15.252Z,694.13
2019-06-25T08:37:41.326Z,682.73
2019-06-25T08:40:19.143Z,561.85
2019-06-25T08:42:35.986Z,667.63
2019-06-25T08:45:04.868Z,663.42
2019-06-25T08:47:31.051Z,646.27
2019-06-25T08:49:57.248Z,623.47
2019-06-25T08:52:23.316Z,633.38
2019-06-25T08:54:49.385Z,636.45
2019-06-25T08:57:15.489Z,647.40
2019-06-25T08:59:41.571Z,626.82
2019-06-25T09:02:07.724Z,689.85
2019-06-25T09:04:33.837Z,689.63
2019-06-25T09:07:00.567Z,683.87
2019-06-25T09:09:26.711Z,599.42
2019-06-25T09:11:53.156Z,617.67
2019-06-25T09:14:19.326Z,636.33
2019-06-25T09:16:45.399Z,651.48
2019-06-25T09:19:11.594Z,652.83
2019-06-25T09:21:37.784Z,643.20
2019-06-25T09:24:03.882Z,577.70
2019-06-25T09:26:30.073Z,625.17
2019-06-25T09:28:56.153Z,670.98
2019-06-25T09:31:22.226Z,697.45
2019-06-25T09:33:48.354Z,744.60
2019-06-25T09:36:15.145Z,711.90
2019-06-25T09:38:41.211Z,706.65
2019-06-25T09:41:07.235Z,724.77
2019-06-25T09:43:33.172Z,711.40
2019-06-25T09:45:59.448Z,703.03
2019-06-25T09:48:25.549Z,739.45
2019-06-25T09:50:52.224Z,737.17
2019-06-25T09:53:21.846Z,750.38
2019-06-25T09:55:46.416Z,730.58
2019-06-25T09:58:12.484Z,751.70
2019-06-25T10:00:51.294Z,722.48
2019-06-25T10:03:17.361Z,735.33
2019-06-25T10:05:43.448Z,732.88
2019-06-25T10:08:09.703Z,759.27
2019-06-25T10:10:35.828Z,754.38
2019-06-25T10:13:01.913Z,772.60
2019-06-25T10:15:28.010Z,755.63
2019-06-25T10:17:54.085Z,828.65
2019-06-25T10:20:20.266Z,818.82
2019-06-25T10:22:46.435Z,748.58
2019-06-25T10:25:12.509Z,750.77
2019-06-25T10:27:38.578Z,772.55
2019-06-25T10:30:06.766Z,797.05
2019-06-25T10:32:32.840Z,800.17
2019-06-25T10:35:02.362Z,798.17
2019-06-25T10:37:26.914Z,813.52
2019-06-25T10:39:52.990Z,817.80
2019-06-25T10:42:19.076Z,802.25
2019-06-25T10:44:45.189Z,833.70
2019-06-25T10:47:11.365Z,800.88
2019-06-25T10:49:38.232Z,782.27
2019-06-25T10:52:04.344Z,779.92
2019-06-25T10:54:30.427Z,784.17
2019-06-25T10:56:56.517Z,787.83
2019-06-25T10:59:22.711Z,792.65
2019-06-25T11:01:48.892Z,800.13
2019-06-25T11:04:15.016Z,797.45
2019-06-25T11:06:56.565Z,804.92
2019-06-25T11:09:09.644Z,781.25
2019-06-25T11:11:35.921Z,797.95
2019-06-25T11:14:08.089Z,816.95
2019-06-25T11:16:30.081Z,787.00
2019-06-25T11:18:56.150Z,787.75
2019-06-25T11:21:22.342Z,797.30
2019-06-25T11:23:48.437Z,796.20
2019-06-25T11:26:22.559Z,782.58
2019-06-25T11:28:42.512Z,823.45
2019-06-25T11:31:08.598Z,808.95
2019-06-25T11:33:34.770Z,803.73
2019-06-25T11:36:00.975Z,829.00
2019-06-25T11:38:27.052Z,842.92
2019-06-25T11:40:53.117Z,824.80
2019-06-25T11:43:19.245Z,807.80
2019-06-25T11:45:45.311Z,851.65
2019-06-25T11:48:11.388Z,814.98
2019-06-25T11:50:37.522Z,833.85
2019-06-25T11:53:04.766Z,789.48
2019-06-25T11:55:30.854Z,833.35
2019-06-25T11:57:56.965Z,816.58
2019-06-25T12:00:24.538Z,807.45
2019-06-25T12:02:50.612Z,799.15
2019-06-25T12:05:16.820Z,775.75
2019-06-25T12:07:42.917Z,802.52
2019-06-25T12:10:09.707Z,819.20
2019-06-25T12:12:35.888Z,826.17
2019-06-25T12:15:06.065Z,855.63
2019-06-25T12:17:33.830Z,865.83
2019-06-25T12:20:00.028Z,827.45
2019-06-25T12:22:26.092Z,827.35
2019-06-25T12:24:52.172Z,869.00
2019-06-25T12:27:18.967Z,838.87
2019-06-25T12:29:45.051Z,852.85
2019-06-25T12:32:11.221Z,829.57
2019-06-25T12:34:37.333Z,852.08
2019-06-25T12:37:09.472Z,851.82
2019-06-25T12:39:31.412Z,882.65
2019-06-25T12:41:57.612Z,928.52
2019-06-25T12:44:23.686Z,964.77
2019-06-25T12:47:02.100Z,991.60
2019-06-25T12:49:17.781Z,999.90
2019-06-25T12:51:43.886Z,999.90
2019-06-25T12:54:10.042Z,999.90
2019-06-25T12:56:36.233Z,999.90
2019-06-25T12:59:02.296Z,999.90
2019-06-25T13:01:40.840Z,999.90
2019-06-25T13:03:56.350Z,999.90
2019-06-25T13:06:22.417Z,999.90
2019-06-25T13:08:48.487Z,999.90
2019-06-25T13:11:14.672Z,999.90
2019-06-25T13:13:40.743Z,999.90
2019-06-25T13:16:06.808Z,999.90
2019-06-25T13:18:32.895Z,999.90
2019-06-25T13:20:58.968Z,999.90
2019-06-25T13:23:25.070Z,999.90
2019-06-25T13:25:51.193Z,825.33
2019-06-25T13:28:17.360Z,902.23
2019-06-25T13:30:43.432Z,999.90
2019-06-25T13:33:09.534Z,780.77
2019-06-25T13:35:35.629Z,803.70
2019-06-25T13:38:01.701Z,999.90
2019-06-25T13:40:27.900Z,895.90
2019-06-25T13:42:54.057Z,952.83
2019-06-25T13:45:20.355Z,999.90
2019-06-25T13:47:46.530Z,875.90
2019-06-25T13:50:13.005Z,751.47
2019-06-25T13:52:39.079Z,999.90
2019-06-25T13:55:06.260Z,891.77
2019-06-25T13:57:47.647Z,999.90
2019-06-25T14:00:00.344Z,844.83
2019-06-25T14:02:26.520Z,777.30
2019-06-25T14:04:52.592Z,785.40
2019-06-25T14:07:18.660Z,798.43
2019-06-25T14:09:44.770Z,804.47
2019-06-25T14:12:13.824Z,798.07
2019-06-25T14:14:40.700Z,797.33
2019-06-25T14:17:07.196Z,771.87
2019-06-25T14:19:33.329Z,896.70
2019-06-25T14:21:59.399Z,999.90
2019-06-25T14:24:25.537Z,792.77
2019-06-25T14:26:51.681Z,772.37
2019-06-25T14:29:17.750Z,743.03
2019-06-25T14:31:43.876Z,752.80
2019-06-25T14:34:10.046Z,769.77
2019-06-25T14:36:36.130Z,776.23
2019-06-25T14:39:04.740Z,851.73
2019-06-25T14:41:30.838Z,949.63
2019-06-25T14:43:57.000Z,952.97
2019-06-25T14:46:23.097Z,999.90
2019-06-25T14:48:49.170Z,785.87
2019-06-25T14:51:15.350Z,864.70
2019-06-25T14:53:42.477Z,999.90
2019-06-25T14:56:08.544Z,940.47
2019-06-25T14:58:34.720Z,754.07
2019-06-25T15:01:00.916Z,747.00
2019-06-25T15:03:27.106Z,747.27
2019-06-25T15:05:53.185Z,746.90
2019-06-25T15:08:30.623Z,785.53
2019-06-25T15:10:47.265Z,772.17
2019-06-25T15:13:13.488Z,781.77
2019-06-25T15:15:39.640Z,789.77
2019-06-25T15:18:05.707Z,800.47
2019-06-25T15:20:31.884Z,769.10
2019-06-25T15:22:58.064Z,768.37
2019-06-25T15:25:24.303Z,760.37
2019-06-25T15:27:50.477Z,746.07
2019-06-25T15:30:20.386Z,737.57
2019-06-25T15:32:46.448Z,922.97
2019-06-25T15:35:12.528Z,776.30
2019-06-25T15:37:38.616Z,703.60
2019-06-25T15:40:05.496Z,705.30
2019-06-25T15:42:31.658Z,717.03
2019-06-25T15:44:57.847Z,671.53
2019-06-25T15:47:23.931Z,680.70
2019-06-25T15:49:50.004Z,701.17
2019-06-25T15:52:16.108Z,999.90
2019-06-25T15:54:42.175Z,746.47
2019-06-25T15:57:08.266Z,726.50
2019-06-25T15:59:34.436Z,746.63
2019-06-25T16:02:00.536Z,707.50
2019-06-25T16:04:26.698Z,740.77
2019-06-25T16:06:52.900Z,737.00
2019-06-25T16:09:18.997Z,713.63
2019-06-25T16:11:45.138Z,741.10
2019-06-25T16:14:11.265Z,748.07
2019-06-25T16:16:37.399Z,762.67
2019-06-25T16:19:03.501Z,761.57
2019-06-25T16:21:29.652Z,745.07
2019-06-25T16:23:55.739Z,755.83
2019-06-25T16:26:34.973Z,778.43
2019-06-25T16:29:01.060Z,737.80
2019-06-25T16:31:27.232Z,815.57
2019-06-25T16:33:53.402Z,749.33
2019-06-25T16:36:19.493Z,875.63
2019-06-25T16:38:45.560Z,916.93
2019-06-25T16:41:11.774Z,999.90
2019-06-25T16:43:37.954Z,999.90
2019-06-25T16:46:04.128Z,999.90
2019-06-25T16:48:30.219Z,999.90
2019-06-25T16:50:56.288Z,999.90
2019-06-25T16:53:22.390Z,999.90
2019-06-25T16:55:48.555Z,999.90
2019-06-25T16:58:14.728Z,999.90
2019-06-25T17:00:40.805Z,999.90
2019-06-25T17:03:07.380Z,999.90
2019-06-25T17:05:36.768Z,999.90
2019-06-25T17:08:01.592Z,970.23
2019-06-25T17:10:27.776Z,956.63
2019-06-25T17:12:53.907Z,939.17
2019-06-25T17:15:20.025Z,932.53
2019-06-25T17:17:46.099Z,891.00
2019-06-25T17:20:12.511Z,714.33
2019-06-25T17:22:38.656Z,582.08
2019-06-25T17:25:05.656Z,611.17
2019-06-25T17:27:31.757Z,553.45
2019-06-25T17:29:57.814Z,570.40
2019-06-25T17:32:23.893Z,821.57
2019-06-25T17:34:50.051Z,783.67
2019-06-25T17:37:16.150Z,842.73
2019-06-25T17:39:51.080Z,753.35
2019-06-25T17:42:10.271Z,747.35
2019-06-25T17:44:37.496Z,759.95
2019-06-25T17:47:03.698Z,802.85
2019-06-25T17:49:29.887Z,723.65
2019-06-25T17:51:55.998Z,715.58
2019-06-25T17:54:22.408Z,731.02
2019-06-25T17:56:48.506Z,677.35
2019-06-25T17:59:14.584Z,648.42
2019-06-25T18:01:40.656Z,714.45
2019-06-25T18:04:13.319Z,690.98
2019-06-25T18:06:40.104Z,619.40
2019-06-25T18:09:07.797Z,580.17
2019-06-25T18:11:33.883Z,710.80
2019-06-25T18:13:59.981Z,640.12
2019-06-25T18:16:26.138Z,682.20
2019-06-25T18:18:52.228Z,668.05
2019-06-25T18:21:18.399Z,614.83
2019-06-25T18:23:44.511Z,648.67
2019-06-25T18:26:10.689Z,651.40
2019-06-25T18:28:36.771Z,601.25
2019-06-25T18:31:02.972Z,609.48
2019-06-25T18:33:29.043Z,618.73
2019-06-25T18:35:55.123Z,644.20
2019-06-25T18:38:21.344Z,667.30
2019-06-25T18:40:47.738Z,600.00
2019-06-25T18:43:14.114Z,529.02
2019-06-25T18:45:40.339Z,492.45
2019-06-25T18:48:06.536Z,528.83
2019-06-25T18:50:32.698Z,539.02
2019-06-25T18:52:58.765Z,501.27
2019-06-25T18:55:25.204Z,500.12
2019-06-25T18:57:51.374Z,466.90
2019-06-25T19:00:17.665Z,469.28
2019-06-25T19:02:43.760Z,455.13
2019-06-25T19:05:10.156Z,432.77
2019-06-25T19:07:36.321Z,421.25
2019-06-25T19:10:03.531Z,396.77
2019-06-25T19:12:29.625Z,300.98
2019-06-25T19:14:56.256Z,294.55
2019-06-25T19:17:23.952Z,362.80
2019-06-25T19:19:50.084Z,305.20
2019-06-25T19:22:16.156Z,320.90
2019-06-25T19:24:42.247Z,266.70
2019-06-25T19:27:08.317Z,200.57
2019-06-25T19:29:34.415Z,242.77
2019-06-25T19:32:00.609Z,330.35
2019-06-25T19:34:26.700Z,268.57
2019-06-25T19:36:52.784Z,258.25
2019-06-25T19:39:18.889Z,336.95
2019-06-25T19:41:44.981Z,259.75
2019-06-25T19:44:11.163Z,273.98
2019-06-25T19:46:37.270Z,254.82
2019-06-25T19:49:03.434Z,235.05
2019-06-25T19:51:29.515Z,212.78
2019-06-25T19:53:55.715Z,247.70
2019-06-25T19:56:22.014Z,210.80
2019-06-25T19:58:48.097Z,189.28
2019-06-25T20:01:14.193Z,205.55
2019-06-25T20:03:40.317Z,243.55
2019-06-25T20:06:08.033Z,278.10
2019-06-25T20:08:34.211Z,333.95
2019-06-25T20:11:12.061Z,338.15
2019-06-25T20:13:28.315Z,357.62
2019-06-25T20:15:54.663Z,258.93
2019-06-25T20:18:20.843Z,347.60
2019-06-25T20:20:47.023Z,410.70
2019-06-25T20:23:13.209Z,408.35
2019-06-25T20:25:39.276Z,410.40
2019-06-25T20:28:06.188Z,470.98
2019-06-25T20:30:32.429Z,469.07
2019-06-25T20:32:58.553Z,309.07
2019-06-25T20:35:26.548Z,327.68
2019-06-25T20:37:52.640Z,351.55
2019-06-25T20:40:18.722Z,410.02
2019-06-25T20:42:44.788Z,516.92
2019-06-25T20:45:12.188Z,440.88
2019-06-25T20:47:38.903Z,419.35
2019-06-25T20:50:07.205Z,437.02
2019-06-25T20:52:33.392Z,439.27
2019-06-25T20:54:59.544Z,441.15
2019-06-25T20:57:26.871Z,429.92
2019-06-25T20:59:52.979Z,455.37
2019-06-25T21:02:20.565Z,421.68
2019-06-25T21:05:00.999Z,485.82
2019-06-25T21:07:34.343Z,439.48
2019-06-25T21:10:04.211Z,457.68
2019-06-25T21:12:38.668Z,420.80
2019-06-25T21:15:10.536Z,401.48
2019-06-25T21:17:36.704Z,420.45
2019-06-25T21:20:05.303Z,435.87
2019-06-25T21:22:31.392Z,424.45
2019-06-25T21:25:04.697Z,459.10
2019-06-25T21:27:34.153Z,400.20
2019-06-25T21:30:06.080Z,406.32
2019-06-25T21:32:32.148Z,422.25
2019-06-25T21:34:58.250Z,439.75
2019-06-25T21:37:24.315Z,451.40
2019-06-25T21:39:50.407Z,435.50
2019-06-25T21:42:16.593Z,440.02
2019-06-25T21:44:42.883Z,447.65
2019-06-25T21:47:09.576Z,462.88
2019-06-25T21:49:35.749Z,437.72
2019-06-25T21:52:01.857Z,431.95
2019-06-25T21:54:27.928Z,456.90
2019-06-25T21:56:54.012Z,424.88
2019-06-25T21:59:20.109Z,385.90
2019-06-25T22:01:48.503Z,399.32
2019-06-25T22:04:14.661Z,395.95
2019-06-25T22:06:40.865Z,393.23
2019-06-25T22:09:09.144Z,365.82
2019-06-25T22:11:35.212Z,365.65
2019-06-25T22:14:01.319Z,375.57
2019-06-25T22:16:27.487Z,381.45
2019-06-25T22:18:53.670Z,336.65
2019-06-25T22:21:21.481Z,347.85
2019-06-25T22:23:47.781Z,352.18
2019-06-25T22:26:13.960Z,375.45
2019-06-25T22:28:40.152Z,362.93
2019-06-25T22:31:06.427Z,361.40
2019-06-25T22:33:32.496Z,357.60
2019-06-25T22:35:58.696Z,345.65
2019-06-25T22:38:24.792Z,390.65
2019-06-25T22:40:51.659Z,385.02
2019-06-25T22:43:17.756Z,369.77
2019-06-25T22:45:43.825Z,387.05
2019-06-25T22:48:09.923Z,400.57
2019-06-25T22:50:46.299Z,381.65
2019-06-25T22:53:04.084Z,394.02
2019-06-25T22:55:30.196Z,383.90
2019-06-25T22:57:56.281Z,390.57
2019-06-25T23:00:22.482Z,463.18
2019-06-25T23:02:48.829Z,353.73
2019-06-25T23:05:15.096Z,432.15
2019-06-25T23:07:41.166Z,358.38
2019-06-25T23:10:07.761Z,397.00
2019-06-25T23:12:34.095Z,341.35
2019-06-25T23:15:00.564Z,338.52
2019-06-25T23:17:27.018Z,383.23
2019-06-25T23:19:53.153Z,341.23
2019-06-25T23:22:19.276Z,337.40
2019-06-25T23:24:45.373Z,352.60
2019-06-25T23:27:11.548Z,310.70
2019-06-25T23:29:37.723Z,318.88
2019-06-25T23:32:03.835Z,334.77
2019-06-25T23:34:29.909Z,322.17
2019-06-25T23:36:55.996Z,319.55
2019-06-25T23:39:22.057Z,335.43
2019-06-25T23:41:48.361Z,346.62
2019-06-25T23:44:14.515Z,343.97
2019-06-25T23:46:40.660Z,411.82
2019-06-25T23:49:06.701Z,420.30
2019-06-25T23:51:32.744Z,424.50
2019-06-25T23:53:58.812Z,415.68
2019-06-25T23:56:24.857Z,379.57
2019-06-25T23:58:50.906Z,395.88
